createdAt,value
2023-01-17T00:04:10.284Z,13.77
2023-01-17T00:10:23.741Z,12.33
2023-01-17T00:16:26.215Z,12.87
2023-01-17T00:22:49.741Z,11.93
2023-01-17T00:28:52.255Z,11.90
2023-01-17T00:34:54.731Z,13.63
2023-01-17T00:41:06.215Z,12.03
2023-01-17T00:47:26.888Z,12.03
2023-01-17T00:53:47.057Z,12.50
2023-01-17T01:00:07.350Z,11.47
2023-01-17T01:06:28.357Z,11.17
2023-01-17T01:12:51.874Z,12.37
2023-01-17T01:19:12.545Z,11.70
2023-01-17T01:25:33.048Z,11.53
2023-01-17T01:31:55.521Z,11.20
2023-01-17T01:38:02.514Z,10.77
2023-01-17T01:44:57.830Z,11.03
2023-01-17T01:51:05.169Z,9.90
2023-01-17T01:57:14.632Z,11.23
2023-01-17T02:03:38.408Z,10.47
2023-01-17T02:09:45.647Z,11.50
2023-01-17T02:16:01.237Z,10.83
2023-01-17T02:22:13.671Z,10.70
2023-01-17T02:28:27.179Z,9.77
2023-01-17T02:34:56.768Z,9.47
2023-01-17T02:41:09.477Z,10.43
2023-01-17T02:47:32.234Z,11.93
2023-01-17T02:53:55.364Z,10.73
2023-01-17T03:00:04.847Z,11.20
2023-01-17T03:06:15.302Z,12.13
2023-01-17T03:12:17.790Z,12.33
2023-01-17T03:18:23.933Z,11.40
2023-01-17T03:24:33.651Z,10.40
2023-01-17T03:30:36.227Z,10.63
2023-01-17T03:36:40.592Z,10.30
2023-01-17T03:42:52.162Z,11.23
2023-01-17T03:48:56.648Z,9.90
2023-01-17T03:55:03.153Z,10.10
2023-01-17T04:01:05.665Z,10.27
2023-01-17T04:07:11.026Z,10.57
2023-01-17T04:13:14.500Z,13.37
2023-01-17T04:19:16.953Z,12.60
2023-01-17T04:25:19.434Z,12.67
2023-01-17T04:31:27.888Z,12.73
2023-01-17T04:37:30.354Z,14.73
2023-01-17T04:43:32.814Z,13.83
2023-01-17T04:49:35.265Z,23.50
2023-01-17T04:55:37.716Z,18.07
2023-01-17T05:01:43.253Z,13.30
2023-01-17T05:07:45.683Z,12.27
2023-01-17T05:13:49.141Z,14.67
2023-01-17T05:19:52.591Z,18.13
2023-01-17T05:25:56.634Z,18.13
2023-01-17T05:32:01.507Z,18.40
2023-01-17T05:38:03.949Z,13.13
2023-01-17T05:44:08.344Z,16.10
2023-01-17T05:50:12.585Z,13.87
2023-01-17T05:56:14.637Z,13.83
2023-01-17T06:02:16.344Z,13.03
2023-01-17T06:08:21.300Z,12.87
2023-01-17T06:14:23.831Z,14.60
2023-01-17T06:20:26.307Z,24.00
2023-01-17T06:26:28.766Z,17.23
2023-01-17T06:32:31.303Z,14.73
2023-01-17T06:38:35.879Z,14.63
2023-01-17T06:44:38.196Z,15.37
2023-01-17T06:50:40.733Z,15.40
2023-01-17T06:56:47.175Z,35.57
2023-01-17T07:02:50.636Z,32.93
2023-01-17T07:08:52.925Z,27.70
2023-01-17T07:14:54.668Z,26.87
2023-01-17T07:20:56.353Z,28.57
2023-01-17T07:26:58.494Z,24.70
2023-01-17T07:33:01.964Z,29.90
2023-01-17T07:39:06.370Z,21.50
2023-01-17T07:45:10.870Z,15.40
2023-01-17T07:51:15.349Z,18.00
2023-01-17T07:57:17.811Z,13.47
2023-01-17T08:03:20.311Z,15.80
2023-01-17T08:09:22.771Z,18.30
2023-01-17T08:15:28.229Z,20.33
2023-01-17T08:21:33.738Z,19.07
2023-01-17T08:27:36.304Z,16.57
2023-01-17T08:33:38.661Z,16.73
2023-01-17T08:39:41.153Z,16.80
2023-01-17T08:45:48.740Z,14.47
2023-01-17T08:51:56.154Z,12.83
2023-01-17T08:57:58.012Z,16.53
2023-01-17T09:04:00.089Z,15.23
2023-01-17T09:10:02.516Z,13.97
2023-01-17T09:16:05.976Z,15.50
2023-01-17T09:22:08.453Z,16.43
2023-01-17T09:28:18.458Z,15.00
2023-01-17T09:34:28.262Z,15.43
2023-01-17T09:40:30.859Z,14.20
2023-01-17T09:46:39.326Z,12.20
2023-01-17T09:52:41.756Z,12.30
2023-01-17T09:59:00.285Z,14.33
2023-01-17T10:05:36.904Z,15.37
2023-01-17T10:12:06.277Z,12.27
2023-01-17T10:18:44.035Z,12.87
2023-01-17T10:24:55.048Z,13.20
2023-01-17T10:31:13.138Z,12.57
2023-01-17T10:37:38.171Z,11.00
2023-01-17T10:43:53.091Z,11.87
2023-01-17T10:50:04.428Z,11.40
2023-01-17T10:56:10.220Z,8.67
2023-01-17T11:02:20.598Z,14.63
2023-01-17T11:08:23.075Z,13.57
2023-01-17T11:14:27.506Z,13.17
2023-01-17T11:20:44.026Z,12.70
2023-01-17T11:26:50.509Z,13.07
2023-01-17T11:32:56.402Z,15.80
2023-01-17T11:39:06.468Z,14.83
2023-01-17T11:45:32.017Z,14.83
2023-01-17T11:51:42.519Z,16.50
2023-01-17T11:57:51.052Z,15.23
2023-01-17T12:03:59.360Z,8.60
2023-01-17T12:10:25.034Z,7.80
2023-01-17T12:16:45.617Z,7.33
2023-01-17T12:23:16.163Z,7.37
2023-01-17T12:29:37.709Z,6.33
2023-01-17T12:35:52.185Z,9.63
2023-01-17T12:42:30.795Z,8.20
2023-01-17T12:48:38.250Z,8.20
2023-01-17T12:54:45.755Z,10.53
2023-01-17T13:00:57.345Z,8.77
2023-01-17T13:07:26.221Z,12.07
2023-01-17T13:13:33.371Z,9.17
2023-01-17T13:19:54.887Z,7.70
2023-01-17T13:26:00.415Z,9.57
2023-01-17T13:32:34.107Z,8.70
2023-01-17T13:39:30.706Z,7.83
2023-01-17T13:45:38.236Z,7.60
2023-01-17T13:52:06.926Z,5.53
2023-01-17T13:58:29.284Z,5.27
2023-01-17T14:05:11.604Z,7.47
2023-01-17T14:11:18.531Z,8.20
2023-01-17T14:17:23.865Z,7.13
2023-01-17T14:23:40.357Z,4.80
2023-01-17T14:29:48.497Z,4.57
2023-01-17T14:36:01.119Z,7.87
2023-01-17T14:42:03.833Z,8.83
2023-01-17T14:48:22.457Z,9.10
2023-01-17T14:54:27.841Z,9.07
2023-01-17T15:00:39.414Z,8.37
2023-01-17T15:06:46.334Z,10.07
2023-01-17T15:12:53.280Z,12.27
2023-01-17T15:19:00.761Z,21.20
2023-01-17T15:25:04.253Z,18.70
2023-01-17T15:31:16.905Z,48.30
2023-01-17T15:37:34.990Z,38.53
2023-01-17T15:43:38.717Z,24.03
2023-01-17T15:49:53.782Z,21.47
2023-01-17T15:55:56.661Z,13.13
2023-01-17T16:02:00.234Z,17.33
2023-01-17T16:08:02.588Z,13.67
2023-01-17T16:14:08.056Z,13.33
2023-01-17T16:20:21.492Z,20.17
2023-01-17T16:26:27.950Z,15.93
2023-01-17T16:32:30.526Z,14.57
2023-01-17T16:38:33.968Z,10.27
2023-01-17T16:44:38.462Z,17.40
2023-01-17T16:50:48.968Z,17.73
2023-01-17T16:56:51.415Z,17.37
2023-01-17T17:02:53.965Z,29.30
2023-01-17T17:08:57.354Z,9.47
2023-01-17T17:14:59.795Z,11.63
2023-01-17T17:21:02.412Z,10.27
2023-01-17T17:27:04.703Z,10.60
2023-01-17T17:33:07.175Z,8.80
2023-01-17T17:39:13.738Z,13.37
2023-01-17T17:45:16.138Z,14.40
2023-01-17T17:51:42.672Z,11.37
2023-01-17T17:57:47.162Z,9.47
2023-01-17T18:03:49.628Z,16.10
2023-01-17T18:09:52.100Z,17.27
2023-01-17T18:16:12.682Z,24.87
2023-01-17T18:22:15.113Z,13.80
2023-01-17T18:28:17.585Z,12.60
2023-01-17T18:34:28.093Z,15.03
2023-01-17T18:40:30.549Z,14.33
2023-01-17T18:46:34.040Z,17.13
2023-01-17T18:52:37.185Z,19.83
2023-01-17T18:58:44.982Z,14.87
2023-01-17T19:04:49.023Z,14.03
2023-01-17T19:10:51.933Z,12.90
2023-01-17T19:16:54.386Z,20.83
2023-01-17T19:22:58.778Z,13.83
2023-01-17T19:29:01.284Z,50.33
2023-01-17T19:35:04.163Z,59.80
2023-01-17T19:41:15.053Z,33.27
2023-01-17T19:47:17.751Z,56.67
2023-01-17T19:53:20.219Z,15.03
2023-01-17T19:59:23.748Z,10.53
2023-01-17T20:05:26.154Z,27.07
2023-01-17T20:11:29.613Z,12.53
2023-01-17T20:17:33.868Z,11.50
2023-01-17T20:23:39.518Z,10.53
2023-01-17T20:29:42.011Z,17.20
2023-01-17T20:35:44.462Z,19.77
2023-01-17T20:41:51.910Z,9.53
2023-01-17T20:47:55.769Z,5.37
2023-01-17T20:54:01.879Z,6.47
2023-01-17T21:00:05.321Z,6.47
2023-01-17T21:06:10.838Z,7.17
2023-01-17T21:12:15.322Z,8.20
2023-01-17T21:18:19.826Z,14.47
2023-01-17T21:24:22.624Z,13.50
2023-01-17T21:30:24.710Z,7.17
2023-01-17T21:36:30.153Z,6.13
2023-01-17T21:42:32.607Z,6.00
2023-01-17T21:48:34.478Z,5.03
2023-01-17T21:54:54.721Z,4.67
2023-01-17T22:01:08.162Z,6.20
2023-01-17T22:07:09.942Z,5.43
2023-01-17T22:13:17.060Z,4.80
2023-01-17T22:19:23.528Z,4.83
2023-01-17T22:25:26.015Z,7.10
2023-01-17T22:31:29.448Z,6.40
2023-01-17T22:37:31.901Z,7.20
2023-01-17T22:43:39.393Z,8.03
2023-01-17T22:49:41.835Z,9.37
2023-01-17T22:55:44.293Z,10.27
2023-01-17T23:01:46.744Z,9.47
2023-01-17T23:07:51.196Z,10.63
2023-01-17T23:13:53.670Z,23.37
2023-01-17T23:19:56.153Z,16.33
2023-01-17T23:26:03.535Z,7.23
2023-01-17T23:32:05.945Z,6.10
2023-01-17T23:38:26.267Z,5.23
2023-01-17T23:44:32.046Z,5.30
2023-01-17T23:50:33.898Z,6.70
2023-01-17T23:56:35.880Z,5.40
